createdAt,value
2022-08-26T00:01:55.679Z,3.37
2022-08-26T00:04:25.475Z,1.90
2022-08-26T00:06:56.660Z,1.67
2022-08-26T00:09:25.502Z,1.97
2022-08-26T00:11:54.071Z,1.93
2022-08-26T00:14:24.171Z,3.13
2022-08-26T00:16:55.630Z,2.53
2022-08-26T00:19:23.425Z,1.63
2022-08-26T00:21:51.311Z,3.33
2022-08-26T00:24:21.083Z,2.30
2022-08-26T00:26:49.124Z,3.57
2022-08-26T00:29:17.197Z,2.37
2022-08-26T00:31:45.389Z,2.43
2022-08-26T00:34:13.845Z,3.77
2022-08-26T00:36:41.052Z,3.23
2022-08-26T00:39:09.082Z,2.20
2022-08-26T00:41:38.223Z,2.30
2022-08-26T00:44:05.925Z,2.20
2022-08-26T00:46:37.244Z,1.60
2022-08-26T00:49:27.365Z,2.03
2022-08-26T00:51:58.910Z,3.23
2022-08-26T00:54:31.840Z,3.13
2022-08-26T00:57:02.706Z,3.47
2022-08-26T00:59:32.764Z,1.97
2022-08-26T01:02:02.864Z,1.97
2022-08-26T01:04:32.111Z,3.23
2022-08-26T01:06:59.982Z,1.93
2022-08-26T01:09:27.277Z,2.10
2022-08-26T01:11:58.219Z,1.87
2022-08-26T01:14:29.993Z,3.07
2022-08-26T01:16:57.100Z,3.27
2022-08-26T01:19:41.428Z,1.93
2022-08-26T01:22:28.846Z,3.00
2022-08-26T01:24:59.008Z,6.57
2022-08-26T01:27:32.404Z,3.03
2022-08-26T01:30:01.272Z,1.60
2022-08-26T01:32:31.574Z,2.10
2022-08-26T01:34:59.387Z,6.77
2022-08-26T01:37:35.763Z,2.17
2022-08-26T01:40:06.044Z,2.23
2022-08-26T01:42:34.407Z,2.30
2022-08-26T01:45:05.908Z,2.43
2022-08-26T01:47:35.110Z,2.47
2022-08-26T01:50:05.759Z,1.97
2022-08-26T01:52:35.823Z,2.37
2022-08-26T01:55:02.965Z,3.13
2022-08-26T01:57:30.773Z,2.40
2022-08-26T02:00:00.643Z,2.27
2022-08-26T02:02:28.151Z,5.30
2022-08-26T02:05:02.110Z,2.03
2022-08-26T02:07:29.807Z,3.83
2022-08-26T02:09:56.981Z,4.83
2022-08-26T02:12:26.046Z,3.07
2022-08-26T02:14:58.145Z,2.60
2022-08-26T02:17:34.146Z,2.23
2022-08-26T02:20:02.472Z,3.40
2022-08-26T02:22:31.467Z,2.30
2022-08-26T02:25:21.017Z,2.80
2022-08-26T02:27:48.494Z,3.43
2022-08-26T02:30:21.131Z,6.33
2022-08-26T02:32:49.601Z,3.07
2022-08-26T02:35:20.238Z,2.17
2022-08-26T02:37:49.501Z,2.00
2022-08-26T02:40:22.550Z,1.70
2022-08-26T02:42:49.924Z,2.00
2022-08-26T02:45:23.358Z,2.57
2022-08-26T02:47:52.364Z,1.80
2022-08-26T02:50:20.162Z,2.43
2022-08-26T02:52:48.547Z,2.43
2022-08-26T02:55:16.273Z,2.03
2022-08-26T02:57:43.459Z,3.73
2022-08-26T03:00:14.647Z,1.93
2022-08-26T03:02:41.644Z,2.30
2022-08-26T03:05:09.096Z,4.17
2022-08-26T03:07:36.133Z,2.20
2022-08-26T03:10:08.131Z,2.40
2022-08-26T03:12:36.340Z,2.00
2022-08-26T03:15:16.497Z,4.80
2022-08-26T03:17:49.189Z,2.23
2022-08-26T03:20:18.518Z,2.43
2022-08-26T03:22:45.687Z,2.80
2022-08-26T03:25:15.957Z,3.23
2022-08-26T03:27:43.197Z,3.80
2022-08-26T03:30:30.389Z,2.50
2022-08-26T03:32:57.690Z,3.03
2022-08-26T03:35:25.930Z,2.40
2022-08-26T03:37:53.346Z,3.27
2022-08-26T03:40:21.381Z,3.03
2022-08-26T03:42:49.526Z,3.10
2022-08-26T03:45:19.094Z,3.00
2022-08-26T03:47:47.292Z,3.57
2022-08-26T03:50:22.623Z,3.03
2022-08-26T03:52:51.809Z,2.73
2022-08-26T03:55:23.732Z,3.07
2022-08-26T03:57:51.299Z,3.40
2022-08-26T04:00:19.524Z,20.07
2022-08-26T04:02:48.911Z,3.47
2022-08-26T04:05:17.963Z,4.47
2022-08-26T04:07:45.842Z,4.07
2022-08-26T04:10:20.103Z,5.10
2022-08-26T04:12:47.860Z,2.50
2022-08-26T04:15:17.849Z,4.67
2022-08-26T04:17:45.148Z,2.63
2022-08-26T04:20:16.175Z,2.90
2022-08-26T04:22:43.611Z,3.47
2022-08-26T04:25:11.759Z,2.43
2022-08-26T04:27:39.070Z,3.93
2022-08-26T04:30:09.014Z,2.37
2022-08-26T04:32:37.092Z,2.23
2022-08-26T04:35:05.057Z,3.47
2022-08-26T04:37:33.636Z,2.80
2022-08-26T04:40:00.789Z,3.03
2022-08-26T04:42:29.538Z,2.97
2022-08-26T04:44:56.897Z,2.60
2022-08-26T04:47:27.134Z,2.43
2022-08-26T04:49:57.900Z,2.00
2022-08-26T04:52:25.165Z,3.40
2022-08-26T04:54:52.625Z,2.43
2022-08-26T04:57:19.767Z,2.50
2022-08-26T04:59:46.704Z,1.83
2022-08-26T05:02:16.515Z,2.60
2022-08-26T05:04:43.887Z,4.37
2022-08-26T05:07:11.944Z,2.20
2022-08-26T05:09:41.930Z,2.17
2022-08-26T05:12:09.842Z,2.50
2022-08-26T05:14:36.968Z,2.00
2022-08-26T05:17:04.037Z,3.23
2022-08-26T05:19:31.818Z,3.13
2022-08-26T05:21:59.798Z,2.47
2022-08-26T05:24:26.710Z,4.53
2022-08-26T05:26:54.574Z,3.00
2022-08-26T05:29:23.731Z,3.67
2022-08-26T05:31:52.417Z,3.97
2022-08-26T05:34:23.764Z,7.07
2022-08-26T05:36:57.547Z,2.37
2022-08-26T05:39:24.828Z,3.40
2022-08-26T05:41:51.815Z,5.40
2022-08-26T05:44:21.107Z,4.00
2022-08-26T05:46:51.319Z,1.87
2022-08-26T05:49:18.726Z,5.17
2022-08-26T05:51:47.974Z,3.93
2022-08-26T05:54:22.049Z,2.47
2022-08-26T05:56:52.603Z,9.20
2022-08-26T05:59:24.261Z,8.60
2022-08-26T06:01:52.950Z,2.40
2022-08-26T06:04:20.211Z,2.47
2022-08-26T06:06:47.421Z,3.93
2022-08-26T06:09:14.661Z,5.07
2022-08-26T06:11:44.764Z,3.10
2022-08-26T06:14:11.872Z,6.43
2022-08-26T06:16:40.996Z,3.00
2022-08-26T06:19:10.757Z,4.40
2022-08-26T06:21:39.440Z,2.33
2022-08-26T06:24:31.466Z,1.70
2022-08-26T06:27:05.788Z,3.43
2022-08-26T06:29:36.195Z,3.20
2022-08-26T06:32:05.662Z,2.37
2022-08-26T06:34:33.923Z,2.57
2022-08-26T06:37:06.399Z,2.77
2022-08-26T06:39:34.173Z,3.10
2022-08-26T06:42:03.269Z,2.73
2022-08-26T06:44:33.335Z,3.70
2022-08-26T06:47:01.977Z,2.07
2022-08-26T06:49:29.145Z,5.67
2022-08-26T06:51:59.891Z,5.20
2022-08-26T06:54:31.893Z,2.80
2022-08-26T06:57:00.091Z,2.90
2022-08-26T06:59:27.240Z,8.50
2022-08-26T07:01:55.082Z,2.80
2022-08-26T07:04:23.171Z,2.60
2022-08-26T07:06:53.343Z,4.37
2022-08-26T07:09:23.729Z,4.97
2022-08-26T07:11:51.811Z,2.33
2022-08-26T07:14:21.471Z,1.83
2022-08-26T07:16:50.648Z,2.50
2022-08-26T07:19:30.587Z,2.20
2022-08-26T07:22:03.405Z,5.27
2022-08-26T07:24:31.265Z,1.70
2022-08-26T07:27:05.374Z,2.77
2022-08-26T07:29:34.103Z,5.40
2022-08-26T07:32:01.236Z,1.70
2022-08-26T07:34:28.565Z,2.83
2022-08-26T07:36:57.168Z,4.87
2022-08-26T07:39:27.039Z,4.13
2022-08-26T07:41:54.425Z,2.33
2022-08-26T07:44:21.441Z,3.57
2022-08-26T07:46:53.074Z,3.13
2022-08-26T07:49:22.728Z,2.30
2022-08-26T07:51:50.883Z,5.63
2022-08-26T07:54:18.710Z,3.63
2022-08-26T07:56:46.319Z,1.80
2022-08-26T07:59:15.030Z,2.13
2022-08-26T08:01:45.094Z,4.27
2022-08-26T08:04:17.830Z,2.93
2022-08-26T08:06:45.687Z,4.43
2022-08-26T08:09:13.964Z,1.83
2022-08-26T08:11:44.996Z,4.20
2022-08-26T08:14:13.217Z,3.43
2022-08-26T08:16:45.993Z,4.97
2022-08-26T08:19:15.288Z,3.20
2022-08-26T08:21:43.601Z,24.43
2022-08-26T08:24:11.365Z,2.83
2022-08-26T08:26:39.343Z,1.50
2022-08-26T08:29:08.449Z,2.70
2022-08-26T08:31:56.887Z,4.20
2022-08-26T08:34:24.143Z,2.37
2022-08-26T08:36:54.175Z,1.77
2022-08-26T08:39:22.341Z,2.63
2022-08-26T08:41:49.767Z,1.53
2022-08-26T08:47:12.691Z,2.27
2022-08-26T08:49:39.836Z,2.50
2022-08-26T08:52:22.802Z,1.70
2022-08-26T08:54:55.538Z,4.83
2022-08-26T08:57:40.718Z,2.00
2022-08-26T09:00:18.242Z,2.30
2022-08-26T09:02:58.562Z,3.87
2022-08-26T09:05:35.190Z,3.63
2022-08-26T09:08:11.343Z,2.47
2022-08-26T09:10:40.335Z,1.98
2022-08-26T09:13:23.964Z,2.00
2022-08-26T09:16:09.998Z,1.85
2022-08-26T09:18:48.423Z,2.10
2022-08-26T09:21:17.997Z,2.00
2022-08-26T09:23:49.307Z,2.55
2022-08-26T09:26:42.593Z,3.97
2022-08-26T09:32:19.610Z,4.03
2022-08-26T09:34:55.660Z,2.38
2022-08-26T09:37:40.348Z,5.53
2022-08-26T09:40:30.932Z,2.25
2022-08-26T09:43:10.272Z,2.30
2022-08-26T09:45:39.065Z,2.47
2022-08-26T09:48:07.302Z,2.45
2022-08-26T09:50:40.963Z,1.75
2022-08-26T09:53:16.341Z,1.98
2022-08-26T09:55:49.557Z,1.85
2022-08-26T09:58:33.662Z,2.90
2022-08-26T10:01:03.841Z,3.05
2022-08-26T10:03:34.511Z,2.45
2022-08-26T10:06:21.134Z,3.35
2022-08-26T10:09:11.049Z,2.03
2022-08-26T10:11:51.939Z,2.95
2022-08-26T10:17:25.205Z,2.55
2022-08-26T10:19:58.597Z,1.83
2022-08-26T10:22:41.171Z,2.17
2022-08-26T10:25:14.470Z,2.35
2022-08-26T10:27:53.390Z,1.75
2022-08-26T10:30:24.363Z,2.50
2022-08-26T10:33:13.390Z,2.08
2022-08-26T10:35:57.040Z,3.25
2022-08-26T10:38:30.664Z,1.73
2022-08-26T10:41:09.969Z,1.80
2022-08-26T10:43:58.685Z,2.22
2022-08-26T10:46:29.296Z,2.47
2022-08-26T10:49:08.685Z,2.85
2022-08-26T10:51:45.672Z,2.20
2022-08-26T10:54:23.740Z,3.47
2022-08-26T10:57:01.529Z,1.83
2022-08-26T10:59:31.905Z,1.60
2022-08-26T11:02:11.866Z,2.50
2022-08-26T11:04:49.334Z,1.80
2022-08-26T11:07:36.862Z,2.22
2022-08-26T11:10:19.223Z,2.05
2022-08-26T11:12:57.433Z,1.88
2022-08-26T11:15:25.169Z,1.70
2022-08-26T11:17:52.076Z,2.05
2022-08-26T11:20:42.173Z,3.25
2022-08-26T11:23:23.870Z,1.63
2022-08-26T11:25:57.543Z,2.28
2022-08-26T11:28:36.729Z,2.25
2022-08-26T11:31:08.021Z,1.98
2022-08-26T11:33:48.155Z,2.53
2022-08-26T11:36:40.689Z,1.98
2022-08-26T11:39:24.101Z,3.67
2022-08-26T11:41:54.102Z,1.80
2022-08-26T11:44:24.208Z,2.30
2022-08-26T11:47:03.308Z,2.17
2022-08-26T11:49:33.434Z,1.80
2022-08-26T11:52:22.873Z,2.13
2022-08-26T11:55:12.152Z,2.88
2022-08-26T11:57:53.072Z,3.10
2022-08-26T12:00:31.388Z,3.20
2022-08-26T12:03:05.903Z,1.83
2022-08-26T12:05:36.851Z,2.15
2022-08-26T12:08:11.777Z,2.92
2022-08-26T12:10:39.852Z,1.95
2022-08-26T12:13:08.066Z,3.92
2022-08-26T12:15:36.424Z,1.60
2022-08-26T12:18:28.769Z,3.58
2022-08-26T12:20:57.115Z,1.85
2022-08-26T12:23:41.796Z,1.60
2022-08-26T12:26:19.759Z,2.20
2022-08-26T12:29:19.876Z,5.20
2022-08-26T12:31:48.413Z,1.80
2022-08-26T12:34:17.924Z,1.60
2022-08-26T12:36:48.682Z,2.00
2022-08-26T12:39:33.475Z,1.70
2022-08-26T12:42:08.005Z,2.25
2022-08-26T12:45:03.782Z,4.05
2022-08-26T12:47:43.601Z,1.75
2022-08-26T12:50:21.305Z,3.72
2022-08-26T12:53:03.227Z,3.58
2022-08-26T12:55:33.681Z,1.98
2022-08-26T12:58:16.044Z,2.63
2022-08-26T13:00:48.697Z,2.35
2022-08-26T13:03:29.919Z,1.90
2022-08-26T13:06:16.526Z,1.90
2022-08-26T13:08:55.560Z,2.55
2022-08-26T13:11:40.997Z,5.45
2022-08-26T13:14:11.682Z,2.10
2022-08-26T13:16:44.124Z,1.50
2022-08-26T13:19:17.327Z,2.20
2022-08-26T13:21:56.074Z,1.60
2022-08-26T13:24:30.167Z,2.00
2022-08-26T13:26:57.581Z,1.70
2022-08-26T13:29:24.954Z,2.20
2022-08-26T13:31:53.067Z,2.17
2022-08-26T13:34:22.422Z,2.90
2022-08-26T13:36:51.921Z,2.00
2022-08-26T13:39:19.670Z,3.95
2022-08-26T13:41:47.450Z,3.08
2022-08-26T13:44:14.641Z,2.13
2022-08-26T13:46:42.675Z,4.35
2022-08-26T13:49:11.240Z,1.98
2022-08-26T13:51:39.307Z,2.47
2022-08-26T13:54:06.988Z,2.30
2022-08-26T13:56:34.922Z,2.13
2022-08-26T13:59:03.101Z,2.22
2022-08-26T14:01:32.080Z,3.03
2022-08-26T14:03:59.432Z,2.13
2022-08-26T14:06:26.623Z,2.28
2022-08-26T14:08:53.901Z,2.30
2022-08-26T14:11:21.734Z,1.95
2022-08-26T14:13:48.900Z,3.67
2022-08-26T14:16:27.592Z,2.03
2022-08-26T14:18:54.847Z,3.17
2022-08-26T14:21:23.735Z,2.00
2022-08-26T14:23:52.085Z,2.33
2022-08-26T14:26:28.998Z,3.70
2022-08-26T14:29:00.451Z,4.23
2022-08-26T14:31:29.926Z,2.33
2022-08-26T14:34:00.108Z,2.17
2022-08-26T14:36:33.568Z,2.83
2022-08-26T14:39:08.434Z,2.60
2022-08-26T14:41:41.225Z,2.93
2022-08-26T14:44:14.411Z,2.10
2022-08-26T14:46:51.409Z,2.13
2022-08-26T14:49:20.400Z,2.23
2022-08-26T14:51:47.736Z,1.90
2022-08-26T14:54:16.630Z,1.88
2022-08-26T14:56:56.145Z,2.35
2022-08-26T14:59:30.157Z,2.30
2022-08-26T15:01:59.104Z,2.10
2022-08-26T15:04:26.882Z,3.30
2022-08-26T15:06:55.496Z,2.22
2022-08-26T15:09:23.673Z,2.42
2022-08-26T15:11:51.316Z,3.40
2022-08-26T15:14:20.089Z,2.55
2022-08-26T15:16:57.181Z,3.35
2022-08-26T15:19:27.952Z,2.83
2022-08-26T15:21:55.166Z,2.10
2022-08-26T15:24:24.279Z,2.42
2022-08-26T15:26:52.432Z,2.23
2022-08-26T15:29:19.975Z,2.47
2022-08-26T15:31:47.863Z,1.97
2022-08-26T15:34:17.199Z,3.07
2022-08-26T15:36:46.467Z,4.20
2022-08-26T15:39:14.946Z,3.03
2022-08-26T15:41:42.064Z,2.80
2022-08-26T15:44:10.785Z,3.93
2022-08-26T15:46:38.659Z,4.30
2022-08-26T15:49:06.465Z,7.10
2022-08-26T15:51:45.649Z,2.23
2022-08-26T15:54:14.104Z,2.60
2022-08-26T15:56:41.184Z,1.90
2022-08-26T15:59:11.642Z,2.00
2022-08-26T16:01:39.033Z,2.30
2022-08-26T16:04:06.588Z,2.00
2022-08-26T16:06:36.921Z,1.80
2022-08-26T16:09:04.542Z,2.37
2022-08-26T16:11:31.801Z,2.77
2022-08-26T16:13:58.779Z,2.97
2022-08-26T16:16:26.749Z,1.90
2022-08-26T16:18:54.798Z,2.40
2022-08-26T16:21:25.445Z,2.50
2022-08-26T16:23:52.588Z,4.97
2022-08-26T16:26:22.807Z,3.63
2022-08-26T16:28:49.916Z,5.10
2022-08-26T16:31:17.638Z,6.50
2022-08-26T16:33:44.733Z,4.60
2022-08-26T16:36:12.052Z,5.97
2022-08-26T16:38:40.749Z,3.50
2022-08-26T16:41:08.520Z,2.70
2022-08-26T16:43:36.030Z,3.80
2022-08-26T16:46:06.674Z,3.67
2022-08-26T16:48:34.182Z,4.13
2022-08-26T16:51:01.146Z,6.37
2022-08-26T16:53:28.163Z,3.03
2022-08-26T16:55:55.469Z,2.87
2022-08-26T16:58:22.508Z,3.37
2022-08-26T17:00:49.957Z,7.27
2022-08-26T17:03:17.218Z,6.40
2022-08-26T17:05:44.624Z,4.67
2022-08-26T17:08:14.538Z,4.73
2022-08-26T17:10:51.721Z,3.17
2022-08-26T17:13:34.863Z,12.23
2022-08-26T17:16:04.978Z,3.47
2022-08-26T17:18:32.909Z,5.10
2022-08-26T17:21:06.174Z,3.10
2022-08-26T17:23:33.376Z,4.07
2022-08-26T17:26:00.306Z,2.77
2022-08-26T17:28:27.475Z,2.80
2022-08-26T17:30:57.505Z,7.63
2022-08-26T17:33:25.410Z,3.37
2022-08-26T17:35:53.219Z,7.27
2022-08-26T17:38:21.491Z,4.10
2022-08-26T17:40:49.663Z,3.53
2022-08-26T17:43:17.368Z,3.77
2022-08-26T17:45:44.597Z,3.60
2022-08-26T17:48:12.111Z,4.50
2022-08-26T17:50:41.642Z,5.40
2022-08-26T17:53:12.597Z,4.83
2022-08-26T17:55:50.015Z,6.07
2022-08-26T17:58:20.076Z,3.83
2022-08-26T18:00:49.754Z,5.57
2022-08-26T18:03:18.571Z,3.60
2022-08-26T18:05:51.340Z,3.47
2022-08-26T18:08:18.763Z,4.57
2022-08-26T18:10:45.920Z,5.13
2022-08-26T18:13:15.155Z,5.00
2022-08-26T18:15:45.398Z,3.63
2022-08-26T18:18:15.876Z,3.97
2022-08-26T18:20:44.844Z,3.90
2022-08-26T18:23:13.084Z,12.17
2022-08-26T18:25:41.846Z,4.67
2022-08-26T18:28:08.983Z,4.10
2022-08-26T18:30:35.983Z,3.90
2022-08-26T18:33:03.401Z,4.37
2022-08-26T18:35:30.478Z,7.73
2022-08-26T18:37:58.243Z,5.37
2022-08-26T18:40:28.674Z,3.93
2022-08-26T18:42:55.595Z,6.10
2022-08-26T18:45:22.599Z,4.97
2022-08-26T18:47:49.806Z,4.43
2022-08-26T18:50:17.367Z,5.23
2022-08-26T18:52:44.413Z,6.27
2022-08-26T18:55:11.627Z,6.33
2022-08-26T18:57:38.557Z,4.63
2022-08-26T19:00:06.959Z,4.00
2022-08-26T19:02:34.584Z,5.00
2022-08-26T19:05:01.838Z,4.87
2022-08-26T19:07:28.822Z,4.87
2022-08-26T19:09:55.853Z,5.13
2022-08-26T19:12:23.501Z,5.50
2022-08-26T19:14:54.133Z,4.17
2022-08-26T19:17:22.667Z,6.70
2022-08-26T19:19:49.968Z,7.30
2022-08-26T19:22:17.044Z,5.87
2022-08-26T19:24:44.042Z,6.90
2022-08-26T19:27:14.731Z,9.47
2022-08-26T19:29:42.864Z,7.93
2022-08-26T19:32:09.943Z,5.33
2022-08-26T19:34:36.942Z,5.93
2022-08-26T19:37:04.649Z,6.77
2022-08-26T19:39:31.748Z,4.67
2022-08-26T19:41:59.336Z,7.37
2022-08-26T19:44:45.083Z,10.47
2022-08-26T19:47:12.990Z,4.90
2022-08-26T19:49:39.929Z,6.33
2022-08-26T19:52:08.447Z,6.17
2022-08-26T19:54:36.224Z,5.07
2022-08-26T19:57:03.810Z,4.80
2022-08-26T19:59:33.134Z,6.97
2022-08-26T20:02:01.502Z,5.23
2022-08-26T20:04:32.669Z,5.70
2022-08-26T20:07:01.371Z,4.37
2022-08-26T20:09:33.009Z,9.13
2022-08-26T20:12:00.607Z,5.20
2022-08-26T20:14:30.001Z,4.73
2022-08-26T20:16:57.413Z,4.70
2022-08-26T20:19:43.082Z,7.73
2022-08-26T20:22:10.367Z,7.37
2022-08-26T20:24:37.299Z,5.20
2022-08-26T20:27:07.737Z,7.83
2022-08-26T20:29:36.464Z,5.60
2022-08-26T20:32:05.991Z,5.37
2022-08-26T20:34:33.997Z,6.30
2022-08-26T20:37:01.757Z,11.87
2022-08-26T20:39:29.780Z,9.00
2022-08-26T20:41:57.886Z,6.63
2022-08-26T20:44:25.856Z,8.13
2022-08-26T20:46:53.142Z,8.73
2022-08-26T20:49:20.073Z,6.27
2022-08-26T20:51:52.536Z,7.17
2022-08-26T20:54:24.019Z,9.33
2022-08-26T20:56:56.644Z,7.63
2022-08-26T20:59:23.690Z,6.63
2022-08-26T21:01:50.621Z,7.50
2022-08-26T21:04:20.940Z,8.70
2022-08-26T21:06:52.396Z,7.43
2022-08-26T21:09:21.612Z,9.77
2022-08-26T21:11:48.636Z,7.17
2022-08-26T21:14:16.854Z,8.10
2022-08-26T21:16:45.904Z,7.07
2022-08-26T21:19:18.125Z,11.70
2022-08-26T21:21:46.838Z,7.07
2022-08-26T21:24:14.348Z,6.47
2022-08-26T21:26:41.810Z,11.63
2022-08-26T21:29:09.996Z,10.93
2022-08-26T21:31:42.292Z,6.33
2022-08-26T21:34:13.097Z,10.90
2022-08-26T21:36:40.086Z,12.17
2022-08-26T21:39:11.289Z,8.27
2022-08-26T21:41:39.776Z,8.43
2022-08-26T21:44:06.792Z,8.67
2022-08-26T21:46:36.387Z,11.50
2022-08-26T21:49:07.499Z,8.77
2022-08-26T21:51:41.375Z,9.10
2022-08-26T21:54:11.273Z,15.43
2022-08-26T21:56:44.295Z,15.83
2022-08-26T21:59:11.912Z,9.43
2022-08-26T22:01:38.958Z,7.73
2022-08-26T22:04:09.280Z,10.93
2022-08-26T22:06:42.225Z,10.67
2022-08-26T22:09:09.491Z,8.60
2022-08-26T22:11:36.846Z,11.20
2022-08-26T22:14:03.877Z,9.87
2022-08-26T22:16:30.886Z,8.13
2022-08-26T22:18:57.924Z,9.00
2022-08-26T22:21:28.228Z,14.40
2022-08-26T22:23:58.261Z,12.60
2022-08-26T22:26:28.073Z,10.63
2022-08-26T22:28:59.165Z,16.27
2022-08-26T22:31:37.129Z,9.93
2022-08-26T22:34:07.695Z,13.17
2022-08-26T22:36:34.954Z,13.83
2022-08-26T22:39:02.372Z,12.77
2022-08-26T22:41:29.400Z,15.53
2022-08-26T22:44:02.739Z,9.60
2022-08-26T22:46:30.254Z,9.50
2022-08-26T22:48:57.203Z,16.97
2022-08-26T22:51:24.200Z,10.53
2022-08-26T22:53:51.130Z,16.10
2022-08-26T22:56:19.154Z,8.00
2022-08-26T22:58:46.137Z,9.63
2022-08-26T23:01:14.173Z,15.63
2022-08-26T23:03:41.345Z,14.43
2022-08-26T23:06:12.234Z,9.67
2022-08-26T23:08:41.940Z,11.47
2022-08-26T23:11:10.575Z,11.07
2022-08-26T23:13:38.025Z,8.47
2022-08-26T23:16:09.124Z,10.67
2022-08-26T23:18:36.588Z,12.13
2022-08-26T23:21:03.609Z,14.70
2022-08-26T23:23:31.208Z,13.77
2022-08-26T23:25:58.597Z,13.00
2022-08-26T23:28:26.552Z,12.83
2022-08-26T23:30:54.047Z,12.83
2022-08-26T23:33:21.176Z,11.27
2022-08-26T23:35:48.345Z,8.73
2022-08-26T23:38:16.662Z,11.43
2022-08-26T23:40:43.621Z,13.97
2022-08-26T23:43:11.653Z,12.83
2022-08-26T23:45:38.743Z,10.73
2022-08-26T23:48:06.372Z,8.87
2022-08-26T23:50:56.531Z,9.23
2022-08-26T23:53:23.597Z,11.50
2022-08-26T23:55:52.429Z,9.57
2022-08-26T23:58:21.273Z,9.83
